Keene, Virginia
Current Conditions -  °F | °C
As of 10:53 AM on Thursday 30 Oct 2014 (Local Time) from KCHO Reporting Station
Few Clouds Few Clouds  
Wind Chill: 55°   Ceiling: Unl
Heat Index: 55°   Visibility: 10mi
Dew Point: 44°   Wind: 7mph
Humidity: 67%   Direction: 30°NNE
Pressure: 30.08"   Gusts: NA
Location:  37.87°N, 78.56°W
Report Text: KCHO 301453Z 03006KT 10SM FEW055 13/07 A3008 RMK AO2 SLP182 T01280067 51008
Loading
Personal Weather Stations






























Interactive Weather Map
Tropical Storm Tracking
New forecast layout! Learn more

10-Day Weather Forecast

Advertisements
Track Severe Weather on mobile